Terminal Aerodrome Forecast
Issued by NWS

Home | Current Version | Previous Version | Text Only | Print | Product List | Glossary On
Versions: 1 2 3 4 5 6 7 8 9 10 11 12 13 14 15 16 17 18 19 20 21 22 23 24 25 26
000
FTUS45 KVEF 242000 AAA
TAFLAS
TAF AMD
KLAS 242045Z 2421/2518 12008KT P6SM SKC
     FM242200 17010KT P6SM SKC
     FM250200 21010KT P6SM FEW250
     FM251200 19014KT P6SM SCT140 BKN250=

USA.gov is the U.S. government's official web portal to all federal, state and local government web resources and services.